createdAt,value
2023-07-03T00:02:24.464Z,387.1935
2023-07-03T00:07:36.701Z,387.2807
2023-07-03T00:12:48.947Z,387.1935
2023-07-03T00:18:05.771Z,387.8858
2023-07-03T00:23:18.403Z,387.1935
2023-07-03T00:28:30.441Z,387.5397
2023-07-03T00:33:42.681Z,386.8474
2023-07-03T00:38:54.924Z,387.1935
2023-07-03T00:44:07.033Z,386.5039
2023-07-03T00:49:19.132Z,387.109
2023-07-03T00:54:38.196Z,387.2807
2023-07-03T00:59:52.850Z,387.973
2023-07-03T01:05:05.383Z,387.973
2023-07-03T01:10:17.898Z,387.7986
2023-07-03T01:15:30.125Z,388.1447
2023-07-03T01:20:42.472Z,387.973
2023-07-03T01:25:54.684Z,388.0576
2023-07-03T01:31:07.020Z,389.5267
2023-07-03T01:36:19.269Z,390.0472
2023-07-03T01:41:31.511Z,390.0472
2023-07-03T01:46:43.761Z,390.0472
2023-07-03T01:51:55.996Z,390.6523
2023-07-03T01:57:08.219Z,391.9496
2023-07-03T02:02:20.588Z,391.6035
2023-07-03T02:07:32.866Z,392.0342
2023-07-03T02:12:49.824Z,391.7752
2023-07-03T02:18:02.115Z,391.4291
2023-07-03T02:23:14.205Z,391.6035
2023-07-03T02:28:26.323Z,391.9496
2023-07-03T02:33:38.558Z,392.0342
2023-07-03T02:38:50.762Z,392.2086
2023-07-03T02:44:03.102Z,391.4291
2023-07-03T02:49:15.270Z,392.0342
2023-07-03T02:54:27.432Z,391.688
2023-07-03T02:59:39.591Z,392.9008
2023-07-03T03:04:51.847Z,391.9496
2023-07-03T03:10:04.072Z,392.6419
2023-07-03T03:15:16.286Z,392.2086
2023-07-03T03:20:28.508Z,393.1598
2023-07-03T03:25:40.820Z,392.2958
2023-07-03T03:36:10.772Z,392.6419
2023-07-03T03:41:22.934Z,392.2086
2023-07-03T03:46:35.165Z,392.0342
2023-07-03T03:51:47.435Z,391.688
2023-07-03T03:56:59.645Z,391.688
2023-07-03T04:02:11.951Z,391.4291
2023-07-03T04:07:24.236Z,391.3445
2023-07-03T04:12:37.532Z,392.0342
2023-07-03T04:17:49.864Z,391.9496
2023-07-03T04:23:02.621Z,391.7752
2023-07-03T04:28:15.382Z,391.1702
2023-07-03T04:33:27.496Z,390.9112
2023-07-03T04:38:39.737Z,390.824
2023-07-03T04:43:51.870Z,390.5651
2023-07-03T04:49:05.018Z,390.5651
2023-07-03T04:54:17.230Z,391.0829
2023-07-03T04:59:29.454Z,391.4291
2023-07-03T05:04:41.782Z,391.0829
2023-07-03T05:09:54.416Z,391.2574
2023-07-03T05:15:06.709Z,391.5163
2023-07-03T05:20:18.935Z,390.6523
2023-07-03T05:25:31.164Z,390.1317
2023-07-03T05:30:43.413Z,389.7882
2023-07-03T05:35:56.260Z,388.837
2023-07-03T05:41:08.523Z,389.3549
2023-07-03T05:46:21.445Z,388.9216
2023-07-03T05:51:33.744Z,388.6626
2023-07-03T05:56:46.031Z,388.6626
2023-07-03T06:01:58.249Z,388.4909
2023-07-03T06:07:11.195Z,388.7498
2023-07-03T06:12:23.359Z,388.1447
2023-07-03T06:17:35.467Z,388.7498
2023-07-03T06:22:47.695Z,387.4525
2023-07-03T06:28:00.452Z,387.6269
2023-07-03T06:33:12.842Z,388.0576
2023-07-03T06:38:25.078Z,387.6269
2023-07-03T06:43:37.309Z,387.2807
2023-07-03T06:48:49.404Z,387.8858
2023-07-03T06:54:01.497Z,387.2807
2023-07-03T06:59:13.736Z,387.7986
2023-07-03T07:04:28.609Z,388.2319
2023-07-03T07:09:41.520Z,387.6269
2023-07-03T07:14:53.804Z,387.109
2023-07-03T07:20:06.423Z,387.7986
2023-07-03T07:25:18.491Z,387.1935
2023-07-03T07:30:30.687Z,386.8474
2023-07-03T07:35:42.767Z,386.8474
2023-07-03T07:40:55.002Z,387.5397
2023-07-03T07:46:08.637Z,386.0706
2023-07-03T07:51:20.725Z,385.986
2023-07-03T07:56:34.427Z,386.0706
2023-07-03T08:01:46.835Z,386.0706
2023-07-03T08:12:16.679Z,385.8988
2023-07-03T08:17:28.808Z,385.2937
2023-07-03T08:22:40.919Z,384.8604
2023-07-03T08:27:53.007Z,385.2065
2023-07-03T08:33:05.212Z,384.7758
2023-07-03T08:38:17.913Z,385.3809
2023-07-03T08:43:30.970Z,386.2423
2023-07-03T08:48:43.074Z,385.4655
2023-07-03T08:53:55.639Z,385.0348
2023-07-03T08:59:07.761Z,385.8988
2023-07-03T09:09:33.088Z,385.2937
2023-07-03T09:14:49.350Z,384.6887
2023-07-03T09:20:01.447Z,385.3809
2023-07-03T09:25:14.721Z,385.7244
2023-07-03T09:30:27.306Z,385.1194
2023-07-03T09:35:39.517Z,386.3295
2023-07-03T09:40:51.816Z,385.7244
2023-07-03T09:46:04.011Z,384.9476
2023-07-03T09:51:16.606Z,384.6015
2023-07-03T10:07:15.096Z,383.7374
2023-07-03T10:12:27.355Z,383.7374
2023-07-03T10:17:39.735Z,383.5657
2023-07-03T10:22:52.021Z,384.0836
2023-07-03T10:28:04.121Z,382.6145
2023-07-03T10:33:17.998Z,382.3555
2023-07-03T10:38:30.983Z,382.3555
2023-07-03T10:43:43.211Z,383.8246
2023-07-03T10:48:55.462Z,382.8734
2023-07-03T10:54:07.553Z,382.6145
2023-07-03T10:59:20.800Z,382.4427
2023-07-03T11:04:33.105Z,382.6145
2023-07-03T11:09:45.232Z,383.0478
2023-07-03T11:14:57.906Z,381.9248
2023-07-03T11:20:10.319Z,383.394
2023-07-03T11:25:22.472Z,382.4427
2023-07-03T11:30:34.685Z,383.6529
2023-07-03T11:48:34.722Z,381.3198
2023-07-03T11:53:46.831Z,381.1454
2023-07-03T11:58:58.992Z,381.5787
2023-07-03T12:04:11.141Z,381.7505
2023-07-03T12:09:23.268Z,381.5787
2023-07-03T12:14:35.373Z,382.2683
2023-07-03T12:19:47.514Z,381.4915
2023-07-03T12:30:17.811Z,380.7992
2023-07-03T12:35:30.039Z,381.3198
2023-07-03T12:40:42.150Z,381.4915
2023-07-03T12:45:54.438Z,380.7992
2023-07-03T12:51:08.339Z,382.0094
2023-07-03T12:56:20.442Z,382.0966
2023-07-03T13:01:32.659Z,381.7505
2023-07-03T13:06:44.895Z,382.5273
2023-07-03T13:11:57.118Z,382.8734
2023-07-03T13:17:09.259Z,384.0836
2023-07-03T13:22:21.554Z,383.7374
2023-07-03T13:27:35.630Z,384.3425
2023-07-03T13:32:47.751Z,384.0836
2023-07-03T13:37:59.858Z,384.8604
2023-07-03T13:43:11.891Z,383.8246
2023-07-03T13:48:24.180Z,385.2937
2023-07-03T13:53:36.334Z,383.7374
2023-07-03T13:58:48.428Z,383.9118
2023-07-03T14:09:18.397Z,383.8246
2023-07-03T14:14:32.150Z,383.5657
2023-07-03T14:19:44.249Z,383.8246
2023-07-03T14:24:59.939Z,383.9964
2023-07-03T14:30:12.894Z,384.5169
2023-07-03T14:35:25.907Z,384.5169
2023-07-03T14:40:42.558Z,384.7758
2023-07-03T14:45:54.847Z,384.5169
2023-07-03T14:51:07.260Z,384.8604
2023-07-03T14:56:19.293Z,385.2937
2023-07-03T15:01:31.416Z,385.986
2023-07-03T15:06:43.569Z,385.1194
2023-07-03T15:11:56.196Z,386.3295
2023-07-03T15:17:08.415Z,387.4525
2023-07-03T15:22:20.475Z,387.109
2023-07-03T15:27:32.513Z,386.7628
2023-07-03T15:32:44.585Z,388.3192
2023-07-03T15:37:56.633Z,388.2319
2023-07-03T15:43:08.656Z,389.2677
2023-07-03T15:48:20.757Z,389.6139
2023-07-03T15:53:37.648Z,388.9216
2023-07-03T15:58:49.870Z,389.6139
2023-07-03T16:04:02.646Z,390.4779
2023-07-03T16:09:14.883Z,390.9984
2023-07-03T16:14:26.989Z,391.4291
2023-07-03T16:19:41.968Z,391.0829
2023-07-03T16:24:54.045Z,390.824
2023-07-03T16:30:22.013Z,389.8728
2023-07-03T16:35:34.291Z,390.5651
2023-07-03T16:40:46.527Z,390.2189
2023-07-03T16:45:58.625Z,390.7368
2023-07-03T16:51:11.780Z,391.1702
2023-07-03T16:56:24.821Z,390.4779
2023-07-03T17:06:57.054Z,389.6139
2023-07-03T17:12:09.595Z,390.824
2023-07-03T17:17:21.746Z,390.824
2023-07-03T17:22:40.247Z,390.7368
2023-07-03T17:27:52.381Z,391.0829
2023-07-03T17:33:04.427Z,391.4291
2023-07-03T17:38:16.691Z,391.6035
2023-07-03T17:48:48.967Z,391.2574
2023-07-03T17:54:01.071Z,390.3933
2023-07-03T17:59:13.173Z,390.824
2023-07-03T18:04:25.191Z,390.1317
2023-07-03T18:09:37.292Z,390.824
2023-07-03T18:14:49.394Z,390.2189
2023-07-03T18:20:01.627Z,389.7882
2023-07-03T18:25:13.850Z,389.6139
2023-07-03T18:35:46.337Z,389.7882
2023-07-03T18:40:58.445Z,389.701
2023-07-03T18:46:10.644Z,388.7498
2023-07-03T18:51:23.303Z,388.2319
2023-07-03T18:56:35.530Z,388.4909
2023-07-03T19:01:47.784Z,387.973
2023-07-03T19:17:39.028Z,385.8988
2023-07-03T19:22:55.763Z,385.5527
2023-07-03T19:28:08.569Z,385.8116
2023-07-03T19:33:20.658Z,384.6015
2023-07-03T19:38:32.866Z,384.9476
2023-07-03T19:43:44.954Z,384.1708
2023-07-03T19:48:56.995Z,382.9606
2023-07-03T19:54:09.096Z,382.7017
2023-07-03T19:59:27.603Z,381.8376
2023-07-03T20:04:42.797Z,381.5787
2023-07-03T20:09:54.944Z,382.4427
2023-07-03T20:20:26.557Z,380.6275
2023-07-03T20:25:38.786Z,380.1096
2023-07-03T20:36:08.647Z,379.9378
2023-07-03T20:41:20.702Z,379.9378
2023-07-03T20:46:32.929Z,380.7147
2023-07-03T20:51:45.206Z,380.1968
2023-07-03T20:56:57.623Z,379.5045
2023-07-03T21:02:09.778Z,380.1096
2023-07-03T21:07:21.994Z,380.6275
2023-07-03T21:12:34.207Z,379.8506
2023-07-03T21:17:46.379Z,380.7147
2023-07-03T21:22:58.743Z,380.5429
2023-07-03T21:28:10.830Z,380.9736
2023-07-03T21:33:22.911Z,379.7635
2023-07-03T21:38:35.049Z,379.1584
2023-07-03T21:43:47.197Z,379.5045
2023-07-03T21:48:59.424Z,378.9021
2023-07-03T21:54:11.718Z,378.5559
2023-07-03T21:59:23.971Z,376.31
2023-07-03T22:04:36.233Z,378.0381
2023-07-03T22:09:48.401Z,378.0381
2023-07-03T22:15:00.608Z,378.2098
2023-07-03T22:20:13.208Z,377.9509
2023-07-03T22:25:25.826Z,378.9866
2023-07-03T22:35:58.912Z,380.1968
2023-07-03T22:41:11.010Z,378.6405
2023-07-03T22:46:24.275Z,379.1584
2023-07-03T22:51:36.539Z,379.2456
2023-07-03T22:56:53.501Z,378.7277
2023-07-03T23:02:05.789Z,378.4688
2023-07-03T23:07:18.063Z,378.297
2023-07-03T23:12:30.269Z,378.3842
2023-07-03T23:17:42.492Z,377.3458
2023-07-03T23:22:54.664Z,377.6047
2023-07-03T23:28:08.122Z,376.6562
2023-07-03T23:33:20.848Z,376.3972
2023-07-03T23:38:33.576Z,375.7921
2023-07-03T23:43:45.892Z,376.1382
2023-07-03T23:48:58.205Z,375.9639
2023-07-03T23:54:10.426Z,375.9639
2023-07-03T23:59:23.228Z,375.8793
